Archival Weather

Sydney Intl

Sydney, Australia (YSSY)

Report from: Friday, September 22, 2023 8:30 PM AEST
Current time: Sunday, February 25, 2024 2:10 AM AEDT

Current weather – Weather history – Daily summaries
Weather forecast

Temperature15.0°C (59.0°F)
Dew point9.0°C (48.2°F)
Winds 9 kts (4.6 m/s, 10.4 mph) Southeast (140°)
Visibility6.2 mi. (10 km)
Clouds Few clouds 3,200 ft. (975 m)
Altimeter30.42 in.Hg (1030 mB)
Relative humidity67 %
Density altitude-399 ft. (-122 m)
Flight conditions Visual Meteorological Conditions
Raw dataYSSY 221030Z 14009KT 9999 FEW032 15/09 Q1030
An error has occurred. This application may no longer respond until reloaded. Reload 🗙